sensor_id;sensor_type;location;lat;lon;timestamp;temperature;humidity
54034;DHT22;39952;40.122;18.294;2022-09-19T00:00:42;20.90;46.50
54034;DHT22;39952;40.122;18.294;2022-09-19T00:03:52;20.90;46.60
54034;DHT22;39952;40.122;18.294;2022-09-19T00:07:00;20.80;46.80
54034;DHT22;39952;40.122;18.294;2022-09-19T00:10:08;20.80;46.90
54034;DHT22;39952;40.122;18.294;2022-09-19T00:13:16;20.80;46.60
54034;DHT22;39952;40.122;18.294;2022-09-19T00:16:26;21.00;47.60
54034;DHT22;39952;40.122;18.294;2022-09-19T00:19:33;21.00;46.40
54034;DHT22;39952;40.122;18.294;2022-09-19T00:22:39;21.00;46.90
54034;DHT22;39952;40.122;18.294;2022-09-19T00:26:08;20.90;46.90
54034;DHT22;39952;40.122;18.294;2022-09-19T00:29:17;20.90;48.20
54034;DHT22;39952;40.122;18.294;2022-09-19T00:32:24;21.30;47.10
54034;DHT22;39952;40.122;18.294;2022-09-19T00:35:31;21.30;46.60
54034;DHT22;39952;40.122;18.294;2022-09-19T00:38:38;21.00;46.30
54034;DHT22;39952;40.122;18.294;2022-09-19T00:41:45;21.00;46.50
54034;DHT22;39952;40.122;18.294;2022-09-19T00:45:04;20.80;46.70
54034;DHT22;39952;40.122;18.294;2022-09-19T00:48:13;20.70;47.60
54034;DHT22;39952;40.122;18.294;2022-09-19T00:51:26;20.30;47.70
54034;DHT22;39952;40.122;18.294;2022-09-19T00:54:41;20.40;48.00
54034;DHT22;39952;40.122;18.294;2022-09-19T00:57:58;20.50;47.10
54034;DHT22;39952;40.122;18.294;2022-09-19T01:01:07;20.70;47.30
54034;DHT22;39952;40.122;18.294;2022-09-19T01:04:15;20.70;47.50
54034;DHT22;39952;40.122;18.294;2022-09-19T01:07:29;20.70;46.90
54034;DHT22;39952;40.122;18.294;2022-09-19T01:10:49;20.40;47.30
54034;DHT22;39952;40.122;18.294;2022-09-19T01:14:04;20.10;48.60
54034;DHT22;39952;40.122;18.294;2022-09-19T01:17:16;20.10;48.30
54034;DHT22;39952;40.122;18.294;2022-09-19T01:20:50;20.30;48.10
54034;DHT22;39952;40.122;18.294;2022-09-19T01:24:30;20.20;47.80
54034;DHT22;39952;40.122;18.294;2022-09-19T01:28:07;20.20;48.20
54034;DHT22;39952;40.122;18.294;2022-09-19T01:31:26;20.30;49.00
54034;DHT22;39952;40.122;18.294;2022-09-19T01:34:36;20.20;48.10
54034;DHT22;39952;40.122;18.294;2022-09-19T01:37:51;20.30;48.50
54034;DHT22;39952;40.122;18.294;2022-09-19T01:41:01;20.30;47.90
54034;DHT22;39952;40.122;18.294;2022-09-19T01:44:18;20.50;48.30
54034;DHT22;39952;40.122;18.294;2022-09-19T01:47:33;20.70;47.70
54034;DHT22;39952;40.122;18.294;2022-09-19T01:50:56;20.70;47.60
54034;DHT22;39952;40.122;18.294;2022-09-19T01:54:24;20.80;46.60
54034;DHT22;39952;40.122;18.294;2022-09-19T01:57:52;20.80;47.30
54034;DHT22;39952;40.122;18.294;2022-09-19T02:01:05;20.70;46.20
54034;DHT22;39952;40.122;18.294;2022-09-19T02:04:18;20.70;46.50
54034;DHT22;39952;40.122;18.294;2022-09-19T02:07:29;20.50;47.30
54034;DHT22;39952;40.122;18.294;2022-09-19T02:10:50;20.50;47.80
54034;DHT22;39952;40.122;18.294;2022-09-19T02:14:06;20.70;46.70
54034;DHT22;39952;40.122;18.294;2022-09-19T02:17:21;20.80;46.70
54034;DHT22;39952;40.122;18.294;2022-09-19T02:20:33;20.70;46.20
54034;DHT22;39952;40.122;18.294;2022-09-19T02:23:47;20.60;47.30
54034;DHT22;39952;40.122;18.294;2022-09-19T02:26:58;20.50;46.90
54034;DHT22;39952;40.122;18.294;2022-09-19T02:30:09;20.40;47.00
54034;DHT22;39952;40.122;18.294;2022-09-19T02:33:22;20.30;47.00
54034;DHT22;39952;40.122;18.294;2022-09-19T02:36:34;20.20;47.60
54034;DHT22;39952;40.122;18.294;2022-09-19T02:39:48;20.30;47.90
54034;DHT22;39952;40.122;18.294;2022-09-19T02:43:12;20.30;47.80
54034;DHT22;39952;40.122;18.294;2022-09-19T02:46:30;20.20;48.40
54034;DHT22;39952;40.122;18.294;2022-09-19T02:49:46;20.20;47.70
54034;DHT22;39952;40.122;18.294;2022-09-19T02:52:55;20.30;47.70
54034;DHT22;39952;40.122;18.294;2022-09-19T02:56:03;20.30;48.20
54034;DHT22;39952;40.122;18.294;2022-09-19T02:59:16;20.40;47.30
54034;DHT22;39952;40.122;18.294;2022-09-19T03:02:35;20.30;47.80
54034;DHT22;39952;40.122;18.294;2022-09-19T03:05:44;20.50;47.70
54034;DHT22;39952;40.122;18.294;2022-09-19T03:08:53;20.50;46.50
54034;DHT22;39952;40.122;18.294;2022-09-19T03:12:05;20.60;47.00
54034;DHT22;39952;40.122;18.294;2022-09-19T03:15:14;20.70;46.80
54034;DHT22;39952;40.122;18.294;2022-09-19T03:18:22;20.50;47.10
54034;DHT22;39952;40.122;18.294;2022-09-19T03:21:32;20.70;46.40
54034;DHT22;39952;40.122;18.294;2022-09-19T03:24:42;20.70;45.50
54034;DHT22;39952;40.122;18.294;2022-09-19T03:27:49;20.50;46.20
54034;DHT22;39952;40.122;18.294;2022-09-19T03:30:58;20.40;47.50
54034;DHT22;39952;40.122;18.294;2022-09-19T03:34:07;20.30;47.30
54034;DHT22;39952;40.122;18.294;2022-09-19T03:37:15;20.40;47.40
54034;DHT22;39952;40.122;18.294;2022-09-19T03:40:23;20.40;47.60
54034;DHT22;39952;40.122;18.294;2022-09-19T03:43:32;20.60;47.90
54034;DHT22;39952;40.122;18.294;2022-09-19T03:46:41;20.70;47.60
54034;DHT22;39952;40.122;18.294;2022-09-19T03:49:52;20.80;46.80
54034;DHT22;39952;40.122;18.294;2022-09-19T03:53:00;20.80;46.60
54034;DHT22;39952;40.122;18.294;2022-09-19T03:56:12;20.80;46.60
54034;DHT22;39952;40.122;18.294;2022-09-19T03:59:19;20.90;47.00
54034;DHT22;39952;40.122;18.294;2022-09-19T04:02:26;21.00;45.70
54034;DHT22;39952;40.122;18.294;2022-09-19T04:05:33;21.00;46.30
54034;DHT22;39952;40.122;18.294;2022-09-19T04:08:41;21.10;45.80
54034;DHT22;39952;40.122;18.294;2022-09-19T04:11:48;21.00;46.00
54034;DHT22;39952;40.122;18.294;2022-09-19T04:14:57;20.90;46.50
54034;DHT22;39952;40.122;18.294;2022-09-19T04:18:06;20.80;46.80
54034;DHT22;39952;40.122;18.294;2022-09-19T04:21:14;21.00;46.80
54034;DHT22;39952;40.122;18.294;2022-09-19T04:24:26;21.10;46.50
54034;DHT22;39952;40.122;18.294;2022-09-19T04:27:54;21.20;46.30
54034;DHT22;39952;40.122;18.294;2022-09-19T04:31:04;21.20;45.90
54034;DHT22;39952;40.122;18.294;2022-09-19T04:34:11;21.30;45.80
54034;DHT22;39952;40.122;18.294;2022-09-19T04:37:23;21.30;46.00
54034;DHT22;39952;40.122;18.294;2022-09-19T04:40:43;21.10;46.90
54034;DHT22;39952;40.122;18.294;2022-09-19T04:43:51;21.10;46.00
54034;DHT22;39952;40.122;18.294;2022-09-19T04:47:18;21.10;46.20
54034;DHT22;39952;40.122;18.294;2022-09-19T04:50:25;21.20;46.20
54034;DHT22;39952;40.122;18.294;2022-09-19T04:53:37;21.30;45.70
54034;DHT22;39952;40.122;18.294;2022-09-19T04:56:47;21.30;46.20
54034;DHT22;39952;40.122;18.294;2022-09-19T04:59:54;21.50;45.20
54034;DHT22;39952;40.122;18.294;2022-09-19T05:03:01;21.60;45.30
54034;DHT22;39952;40.122;18.294;2022-09-19T05:06:12;21.70;44.90
54034;DHT22;39952;40.122;18.294;2022-09-19T05:09:19;21.60;44.30
54034;DHT22;39952;40.122;18.294;2022-09-19T05:12:39;21.50;44.60
54034;DHT22;39952;40.122;18.294;2022-09-19T05:15:46;21.30;45.50
54034;DHT22;39952;40.122;18.294;2022-09-19T05:18:54;21.50;44.60
54034;DHT22;39952;40.122;18.294;2022-09-19T05:22:01;21.70;45.60
54034;DHT22;39952;40.122;18.294;2022-09-19T05:25:08;22.00;44.60
54034;DHT22;39952;40.122;18.294;2022-09-19T05:28:21;22.10;44.70
54034;DHT22;39952;40.122;18.294;2022-09-19T05:31:33;22.20;43.70
54034;DHT22;39952;40.122;18.294;2022-09-19T05:34:58;22.10;43.20
54034;DHT22;39952;40.122;18.294;2022-09-19T05:38:26;21.60;43.10
54034;DHT22;39952;40.122;18.294;2022-09-19T05:41:51;21.70;44.10
54034;DHT22;39952;40.122;18.294;2022-09-19T05:45:01;21.70;43.00
54034;DHT22;39952;40.122;18.294;2022-09-19T05:48:08;21.80;42.60
54034;DHT22;39952;40.122;18.294;2022-09-19T05:51:16;21.80;42.40
54034;DHT22;39952;40.122;18.294;2022-09-19T05:54:23;21.70;42.40
54034;DHT22;39952;40.122;18.294;2022-09-19T05:57:53;21.80;42.50
54034;DHT22;39952;40.122;18.294;2022-09-19T06:01:08;21.70;42.60
54034;DHT22;39952;40.122;18.294;2022-09-19T06:04:15;21.70;42.90
54034;DHT22;39952;40.122;18.294;2022-09-19T06:07:23;21.90;43.00
54034;DHT22;39952;40.122;18.294;2022-09-19T06:10:34;22.00;42.40
54034;DHT22;39952;40.122;18.294;2022-09-19T06:13:40;22.10;42.50
54034;DHT22;39952;40.122;18.294;2022-09-19T06:17:07;22.20;42.90
54034;DHT22;39952;40.122;18.294;2022-09-19T06:20:27;22.30;42.90
54034;DHT22;39952;40.122;18.294;2022-09-19T06:23:44;22.50;42.40
54034;DHT22;39952;40.122;18.294;2022-09-19T06:26:53;22.70;42.40
54034;DHT22;39952;40.122;18.294;2022-09-19T06:30:03;22.50;43.10
54034;DHT22;39952;40.122;18.294;2022-09-19T06:33:30;22.90;42.90
54034;DHT22;39952;40.122;18.294;2022-09-19T06:36:40;23.10;42.70
54034;DHT22;39952;40.122;18.294;2022-09-19T06:39:48;23.30;42.80
54034;DHT22;39952;40.122;18.294;2022-09-19T06:43:31;23.30;43.00
54034;DHT22;39952;40.122;18.294;2022-09-19T06:46:40;23.30;43.50
54034;DHT22;39952;40.122;18.294;2022-09-19T06:50:09;23.20;43.90
54034;DHT22;39952;40.122;18.294;2022-09-19T06:53:34;23.40;44.00
54034;DHT22;39952;40.122;18.294;2022-09-19T06:56:44;23.50;43.10
54034;DHT22;39952;40.122;18.294;2022-09-19T06:59:53;23.80;42.30
54034;DHT22;39952;40.122;18.294;2022-09-19T07:03:01;23.80;41.90
54034;DHT22;39952;40.122;18.294;2022-09-19T07:06:12;23.80;41.60
54034;DHT22;39952;40.122;18.294;2022-09-19T07:09:22;23.90;41.80
54034;DHT22;39952;40.122;18.294;2022-09-19T07:12:28;23.80;42.10
54034;DHT22;39952;40.122;18.294;2022-09-19T07:15:41;23.80;41.60
54034;DHT22;39952;40.122;18.294;2022-09-19T07:18:47;24.00;40.20
54034;DHT22;39952;40.122;18.294;2022-09-19T07:22:15;24.00;40.80
54034;DHT22;39952;40.122;18.294;2022-09-19T07:25:41;23.80;38.60
54034;DHT22;39952;40.122;18.294;2022-09-19T07:28:48;23.80;38.90
54034;DHT22;39952;40.122;18.294;2022-09-19T07:31:57;24.30;30.90
54034;DHT22;39952;40.122;18.294;2022-09-19T07:35:05;24.30;30.70
54034;DHT22;39952;40.122;18.294;2022-09-19T07:38:17;24.40;32.00
54034;DHT22;39952;40.122;18.294;2022-09-19T07:41:43;24.50;32.00
54034;DHT22;39952;40.122;18.294;2022-09-19T07:45:09;24.60;32.60
54034;DHT22;39952;40.122;18.294;2022-09-19T07:48:38;24.90;32.40
54034;DHT22;39952;40.122;18.294;2022-09-19T07:52:02;24.80;32.50
54034;DHT22;39952;40.122;18.294;2022-09-19T07:55:11;25.20;32.10
54034;DHT22;39952;40.122;18.294;2022-09-19T07:58:19;25.30;31.80
54034;DHT22;39952;40.122;18.294;2022-09-19T08:01:30;25.20;31.80
54034;DHT22;39952;40.122;18.294;2022-09-19T08:04:48;24.80;32.10
54034;DHT22;39952;40.122;18.294;2022-09-19T08:07:57;24.80;33.70
54034;DHT22;39952;40.122;18.294;2022-09-19T08:11:08;25.10;34.20
54034;DHT22;39952;40.122;18.294;2022-09-19T08:14:16;25.30;34.20
54034;DHT22;39952;40.122;18.294;2022-09-19T08:17:24;25.60;33.90
54034;DHT22;39952;40.122;18.294;2022-09-19T08:20:35;25.70;34.20
54034;DHT22;39952;40.122;18.294;2022-09-19T08:23:41;25.60;33.90
54034;DHT22;39952;40.122;18.294;2022-09-19T08:26:50;25.60;34.50
54034;DHT22;39952;40.122;18.294;2022-09-19T08:29:58;25.80;34.20
54034;DHT22;39952;40.122;18.294;2022-09-19T08:33:05;25.80;34.20
54034;DHT22;39952;40.122;18.294;2022-09-19T08:36:15;25.90;34.20
54034;DHT22;39952;40.122;18.294;2022-09-19T08:39:26;25.80;34.80
54034;DHT22;39952;40.122;18.294;2022-09-19T08:42:39;25.90;34.90
54034;DHT22;39952;40.122;18.294;2022-09-19T08:46:01;25.90;34.90
54034;DHT22;39952;40.122;18.294;2022-09-19T08:49:15;25.80;34.80
54034;DHT22;39952;40.122;18.294;2022-09-19T08:52:32;25.80;34.50
54034;DHT22;39952;40.122;18.294;2022-09-19T08:55:44;25.80;35.30
54034;DHT22;39952;40.122;18.294;2022-09-19T08:59:00;26.20;35.30
54034;DHT22;39952;40.122;18.294;2022-09-19T09:02:37;26.40;34.50
54034;DHT22;39952;40.122;18.294;2022-09-19T09:06:04;26.50;33.70
54034;DHT22;39952;40.122;18.294;2022-09-19T09:09:25;27.60;32.40
54034;DHT22;39952;40.122;18.294;2022-09-19T09:12:44;29.30;29.20
54034;DHT22;39952;40.122;18.294;2022-09-19T09:16:03;31.40;26.70
54034;DHT22;39952;40.122;18.294;2022-09-19T09:22:45;37.20;19.50
54034;DHT22;39952;40.122;18.294;2022-09-19T09:26:15;38.20;18.10
54034;DHT22;39952;40.122;18.294;2022-09-19T09:29:24;39.60;17.70
54034;DHT22;39952;40.122;18.294;2022-09-19T09:32:51;39.30;17.50
54034;DHT22;39952;40.122;18.294;2022-09-19T09:36:09;40.00;17.40
54034;DHT22;39952;40.122;18.294;2022-09-19T09:39:21;41.90;16.40
54034;DHT22;39952;40.122;18.294;2022-09-19T09:42:34;41.50;16.50
54034;DHT22;39952;40.122;18.294;2022-09-19T09:45:47;40.80;16.70
54034;DHT22;39952;40.122;18.294;2022-09-19T09:49:10;40.50;17.10
54034;DHT22;39952;40.122;18.294;2022-09-19T09:52:27;40.30;17.10
54034;DHT22;39952;40.122;18.294;2022-09-19T09:55:48;40.00;17.60
54034;DHT22;39952;40.122;18.294;2022-09-19T09:59:25;41.00;16.90
54034;DHT22;39952;40.122;18.294;2022-09-19T10:03:03;41.80;15.30
54034;DHT22;39952;40.122;18.294;2022-09-19T10:06:37;41.90;15.10
54034;DHT22;39952;40.122;18.294;2022-09-19T10:09:51;42.20;14.90
54034;DHT22;39952;40.122;18.294;2022-09-19T10:13:02;43.20;14.60
54034;DHT22;39952;40.122;18.294;2022-09-19T10:16:15;41.80;15.40
54034;DHT22;39952;40.122;18.294;2022-09-19T10:19:33;41.30;16.00
54034;DHT22;39952;40.122;18.294;2022-09-19T10:22:42;41.50;15.40
54034;DHT22;39952;40.122;18.294;2022-09-19T10:25:56;41.00;15.90
54034;DHT22;39952;40.122;18.294;2022-09-19T10:29:13;40.50;16.30
54034;DHT22;39952;40.122;18.294;2022-09-19T10:32:52;39.50;15.90
54034;DHT22;39952;40.122;18.294;2022-09-19T10:36:21;37.70;17.30
54034;DHT22;39952;40.122;18.294;2022-09-19T10:39:41;35.70;19.10
54034;DHT22;39952;40.122;18.294;2022-09-19T10:42:53;34.40;19.30
54034;DHT22;39952;40.122;18.294;2022-09-19T10:46:05;32.40;21.20
54034;DHT22;39952;40.122;18.294;2022-09-19T10:49:19;30.90;22.50
54034;DHT22;39952;40.122;18.294;2022-09-19T10:52:30;30.30;23.20
54034;DHT22;39952;40.122;18.294;2022-09-19T10:56:01;30.60;23.30
54034;DHT22;39952;40.122;18.294;2022-09-19T10:59:23;30.90;23.00
54034;DHT22;39952;40.122;18.294;2022-09-19T11:02:56;30.80;22.20
54034;DHT22;39952;40.122;18.294;2022-09-19T11:06:07;30.50;22.40
54034;DHT22;39952;40.122;18.294;2022-09-19T11:09:33;30.80;23.30
54034;DHT22;39952;40.122;18.294;2022-09-19T11:12:42;31.20;23.10
54034;DHT22;39952;40.122;18.294;2022-09-19T11:16:02;31.00;23.40
54034;DHT22;39952;40.122;18.294;2022-09-19T11:19:22;30.70;21.20
54034;DHT22;39952;40.122;18.294;2022-09-19T11:22:40;30.60;21.60
54034;DHT22;39952;40.122;18.294;2022-09-19T11:25:57;30.80;22.30
54034;DHT22;39952;40.122;18.294;2022-09-19T11:29:34;30.90;22.00
54034;DHT22;39952;40.122;18.294;2022-09-19T11:33:04;30.90;22.80
54034;DHT22;39952;40.122;18.294;2022-09-19T11:36:38;30.80;19.50
54034;DHT22;39952;40.122;18.294;2022-09-19T11:40:01;30.60;23.90
54034;DHT22;39952;40.122;18.294;2022-09-19T11:43:22;30.90;25.10
54034;DHT22;39952;40.122;18.294;2022-09-19T11:46:44;31.40;25.10
54034;DHT22;39952;40.122;18.294;2022-09-19T11:53:34;31.90;23.60
54034;DHT22;39952;40.122;18.294;2022-09-19T11:57:00;31.50;25.30
54034;DHT22;39952;40.122;18.294;2022-09-19T12:00:17;31.70;25.80
54034;DHT22;39952;40.122;18.294;2022-09-19T12:03:43;31.30;26.50
54034;DHT22;39952;40.122;18.294;2022-09-19T12:07:17;31.60;26.00
54034;DHT22;39952;40.122;18.294;2022-09-19T12:10:36;31.80;26.70
54034;DHT22;39952;40.122;18.294;2022-09-19T12:13:47;32.30;26.30
54034;DHT22;39952;40.122;18.294;2022-09-19T12:17:03;32.60;25.40
54034;DHT22;39952;40.122;18.294;2022-09-19T12:20:18;31.90;24.70
54034;DHT22;39952;40.122;18.294;2022-09-19T12:23:28;31.80;26.20
54034;DHT22;39952;40.122;18.294;2022-09-19T12:27:07;31.20;28.30
54034;DHT22;39952;40.122;18.294;2022-09-19T12:30:20;31.10;29.00
54034;DHT22;39952;40.122;18.294;2022-09-19T12:33:38;31.20;29.10
54034;DHT22;39952;40.122;18.294;2022-09-19T12:36:58;30.90;29.60
54034;DHT22;39952;40.122;18.294;2022-09-19T12:40:16;31.00;29.80
54034;DHT22;39952;40.122;18.294;2022-09-19T12:43:31;31.40;29.00
54034;DHT22;39952;40.122;18.294;2022-09-19T12:46:50;31.80;28.70
54034;DHT22;39952;40.122;18.294;2022-09-19T12:50:19;32.00;28.50
54034;DHT22;39952;40.122;18.294;2022-09-19T12:53:32;32.30;28.40
54034;DHT22;39952;40.122;18.294;2022-09-19T12:56:48;32.30;28.60
54034;DHT22;39952;40.122;18.294;2022-09-19T12:59:56;32.20;29.80
54034;DHT22;39952;40.122;18.294;2022-09-19T13:03:13;32.10;30.30
54034;DHT22;39952;40.122;18.294;2022-09-19T13:06:23;31.50;31.60
54034;DHT22;39952;40.122;18.294;2022-09-19T13:09:38;31.00;32.60
54034;DHT22;39952;40.122;18.294;2022-09-19T13:12:50;30.50;33.30
54034;DHT22;39952;40.122;18.294;2022-09-19T13:16:01;30.20;33.50
54034;DHT22;39952;40.122;18.294;2022-09-19T13:19:12;30.50;33.10
54034;DHT22;39952;40.122;18.294;2022-09-19T13:22:44;30.60;33.60
54034;DHT22;39952;40.122;18.294;2022-09-19T13:26:23;30.00;34.50
54034;DHT22;39952;40.122;18.294;2022-09-19T13:29:46;30.10;35.10
54034;DHT22;39952;40.122;18.294;2022-09-19T13:32:55;30.40;33.70
54034;DHT22;39952;40.122;18.294;2022-09-19T13:36:07;30.50;34.50
54034;DHT22;39952;40.122;18.294;2022-09-19T13:39:44;30.20;35.10
54034;DHT22;39952;40.122;18.294;2022-09-19T13:43:01;30.10;34.60
54034;DHT22;39952;40.122;18.294;2022-09-19T13:46:14;29.20;36.90
54034;DHT22;39952;40.122;18.294;2022-09-19T13:49:27;28.80;37.30
54034;DHT22;39952;40.122;18.294;2022-09-19T13:52:40;28.70;36.50
54034;DHT22;39952;40.122;18.294;2022-09-19T13:55:57;28.80;37.10
54034;DHT22;39952;40.122;18.294;2022-09-19T13:59:16;28.40;38.70
54034;DHT22;39952;40.122;18.294;2022-09-19T14:02:37;28.40;37.90
54034;DHT22;39952;40.122;18.294;2022-09-19T14:05:45;28.60;37.70
54034;DHT22;39952;40.122;18.294;2022-09-19T14:09:18;28.40;38.90
54034;DHT22;39952;40.122;18.294;2022-09-19T14:13:01;28.50;39.30
54034;DHT22;39952;40.122;18.294;2022-09-19T14:16:33;28.60;38.80
54034;DHT22;39952;40.122;18.294;2022-09-19T14:19:43;28.20;37.10
54034;DHT22;39952;40.122;18.294;2022-09-19T14:22:50;28.40;37.00
54034;DHT22;39952;40.122;18.294;2022-09-19T14:25:59;28.60;38.60
54034;DHT22;39952;40.122;18.294;2022-09-19T14:29:18;28.70;38.60
54034;DHT22;39952;40.122;18.294;2022-09-19T14:32:29;28.50;37.80
54034;DHT22;39952;40.122;18.294;2022-09-19T14:35:45;28.40;38.70
54034;DHT22;39952;40.122;18.294;2022-09-19T14:39:19;28.30;39.20
54034;DHT22;39952;40.122;18.294;2022-09-19T14:43:04;28.30;39.50
54034;DHT22;39952;40.122;18.294;2022-09-19T14:46:26;28.30;39.30
54034;DHT22;39952;40.122;18.294;2022-09-19T14:49:41;28.40;38.20
54034;DHT22;39952;40.122;18.294;2022-09-19T14:52:55;28.30;37.50
54034;DHT22;39952;40.122;18.294;2022-09-19T14:56:11;28.30;38.10
54034;DHT22;39952;40.122;18.294;2022-09-19T14:59:18;28.30;38.80
54034;DHT22;39952;40.122;18.294;2022-09-19T15:02:29;28.10;38.90
54034;DHT22;39952;40.122;18.294;2022-09-19T15:05:44;28.00;39.30
54034;DHT22;39952;40.122;18.294;2022-09-19T15:08:52;28.10;39.20
54034;DHT22;39952;40.122;18.294;2022-09-19T15:12:01;28.20;38.90
54034;DHT22;39952;40.122;18.294;2022-09-19T15:15:14;28.20;38.40
54034;DHT22;39952;40.122;18.294;2022-09-19T15:18:23;27.80;39.00
54034;DHT22;39952;40.122;18.294;2022-09-19T15:21:35;27.50;39.50
54034;DHT22;39952;40.122;18.294;2022-09-19T15:24:44;27.60;39.60
54034;DHT22;39952;40.122;18.294;2022-09-19T15:27:57;27.70;39.40
54034;DHT22;39952;40.122;18.294;2022-09-19T15:31:17;28.00;40.40
54034;DHT22;39952;40.122;18.294;2022-09-19T15:34:26;27.90;41.50
54034;DHT22;39952;40.122;18.294;2022-09-19T15:37:36;27.80;42.70
54034;DHT22;39952;40.122;18.294;2022-09-19T15:40:44;27.40;43.00
54034;DHT22;39952;40.122;18.294;2022-09-19T15:43:54;27.50;42.10
54034;DHT22;39952;40.122;18.294;2022-09-19T15:47:05;27.50;43.30
54034;DHT22;39952;40.122;18.294;2022-09-19T15:50:21;27.50;43.90
54034;DHT22;39952;40.122;18.294;2022-09-19T15:53:34;27.50;44.20
54034;DHT22;39952;40.122;18.294;2022-09-19T15:56:43;27.30;43.80
54034;DHT22;39952;40.122;18.294;2022-09-19T15:59:51;27.30;44.50
54034;DHT22;39952;40.122;18.294;2022-09-19T16:03:05;27.50;44.60
54034;DHT22;39952;40.122;18.294;2022-09-19T16:06:32;27.50;45.50
54034;DHT22;39952;40.122;18.294;2022-09-19T16:10:15;27.40;47.10
54034;DHT22;39952;40.122;18.294;2022-09-19T16:13:36;27.40;47.40
54034;DHT22;39952;40.122;18.294;2022-09-19T16:16:44;27.10;48.40
54034;DHT22;39952;40.122;18.294;2022-09-19T16:19:59;27.10;48.50
54034;DHT22;39952;40.122;18.294;2022-09-19T16:23:13;27.20;48.50
54034;DHT22;39952;40.122;18.294;2022-09-19T16:26:27;27.20;48.40
54034;DHT22;39952;40.122;18.294;2022-09-19T16:29:41;27.20;48.70
54034;DHT22;39952;40.122;18.294;2022-09-19T16:32:50;27.10;49.20
54034;DHT22;39952;40.122;18.294;2022-09-19T16:36:00;27.10;49.30
54034;DHT22;39952;40.122;18.294;2022-09-19T16:39:19;27.10;49.70
54034;DHT22;39952;40.122;18.294;2022-09-19T16:42:33;27.00;49.90
54034;DHT22;39952;40.122;18.294;2022-09-19T16:45:40;27.10;49.60
54034;DHT22;39952;40.122;18.294;2022-09-19T16:48:47;27.00;49.90
54034;DHT22;39952;40.122;18.294;2022-09-19T16:51:54;27.10;49.90
54034;DHT22;39952;40.122;18.294;2022-09-19T16:55:05;27.10;50.10
54034;DHT22;39952;40.122;18.294;2022-09-19T16:58:14;27.10;50.20
54034;DHT22;39952;40.122;18.294;2022-09-19T17:01:21;27.10;50.20
54034;DHT22;39952;40.122;18.294;2022-09-19T17:04:29;27.00;50.50
54034;DHT22;39952;40.122;18.294;2022-09-19T17:07:36;26.90;50.60
54034;DHT22;39952;40.122;18.294;2022-09-19T17:10:43;26.80;50.80
54034;DHT22;39952;40.122;18.294;2022-09-19T17:13:51;27.00;50.70
54034;DHT22;39952;40.122;18.294;2022-09-19T17:16:58;26.80;50.80
54034;DHT22;39952;40.122;18.294;2022-09-19T17:20:05;26.30;52.20
54034;DHT22;39952;40.122;18.294;2022-09-19T17:23:15;25.90;53.20
54034;DHT22;39952;40.122;18.294;2022-09-19T17:26:22;25.70;53.70
54034;DHT22;39952;40.122;18.294;2022-09-19T17:29:30;25.70;54.10
54034;DHT22;39952;40.122;18.294;2022-09-19T17:32:43;25.70;54.20
54034;DHT22;39952;40.122;18.294;2022-09-19T17:35:52;25.70;54.40
54034;DHT22;39952;40.122;18.294;2022-09-19T17:39:03;25.60;54.80
54034;DHT22;39952;40.122;18.294;2022-09-19T17:42:12;25.80;54.30
54034;DHT22;39952;40.122;18.294;2022-09-19T17:45:21;26.00;53.60
54034;DHT22;39952;40.122;18.294;2022-09-19T17:48:29;25.50;55.10
54034;DHT22;39952;40.122;18.294;2022-09-19T17:51:36;25.20;55.80
54034;DHT22;39952;40.122;18.294;2022-09-19T17:54:44;25.10;56.30
54034;DHT22;39952;40.122;18.294;2022-09-19T17:57:51;25.30;55.50
54034;DHT22;39952;40.122;18.294;2022-09-19T18:00:59;25.40;55.20
54034;DHT22;39952;40.122;18.294;2022-09-19T18:04:26;25.50;55.00
54034;DHT22;39952;40.122;18.294;2022-09-19T18:07:32;25.40;55.80
54034;DHT22;39952;40.122;18.294;2022-09-19T18:10:39;25.50;55.20
54034;DHT22;39952;40.122;18.294;2022-09-19T18:13:45;25.60;55.00
54034;DHT22;39952;40.122;18.294;2022-09-19T18:16:54;25.30;55.90
54034;DHT22;39952;40.122;18.294;2022-09-19T18:20:01;25.20;56.20
54034;DHT22;39952;40.122;18.294;2022-09-19T18:23:08;25.20;56.30
54034;DHT22;39952;40.122;18.294;2022-09-19T18:26:17;25.40;55.60
54034;DHT22;39952;40.122;18.294;2022-09-19T18:29:24;25.40;55.70
54034;DHT22;39952;40.122;18.294;2022-09-19T18:32:34;25.40;55.40
54034;DHT22;39952;40.122;18.294;2022-09-19T18:35:41;25.30;55.90
54034;DHT22;39952;40.122;18.294;2022-09-19T18:38:48;25.30;55.80
54034;DHT22;39952;40.122;18.294;2022-09-19T18:41:55;25.40;55.50
54034;DHT22;39952;40.122;18.294;2022-09-19T18:45:02;25.50;54.90
54034;DHT22;39952;40.122;18.294;2022-09-19T18:48:11;25.80;53.60
54034;DHT22;39952;40.122;18.294;2022-09-19T18:51:19;25.70;54.30
54034;DHT22;39952;40.122;18.294;2022-09-19T18:54:26;25.50;54.70
54034;DHT22;39952;40.122;18.294;2022-09-19T18:57:34;25.50;54.80
54034;DHT22;39952;40.122;18.294;2022-09-19T19:00:41;25.30;55.30
54034;DHT22;39952;40.122;18.294;2022-09-19T19:03:53;24.90;56.50
54034;DHT22;39952;40.122;18.294;2022-09-19T19:07:00;25.20;55.40
54034;DHT22;39952;40.122;18.294;2022-09-19T19:10:08;25.20;55.60
54034;DHT22;39952;40.122;18.294;2022-09-19T19:13:15;25.00;56.20
54034;DHT22;39952;40.122;18.294;2022-09-19T19:16:23;24.80;56.60
54034;DHT22;39952;40.122;18.294;2022-09-19T19:19:33;24.90;56.20
54034;DHT22;39952;40.122;18.294;2022-09-19T19:22:40;24.90;56.20
54034;DHT22;39952;40.122;18.294;2022-09-19T19:25:49;24.80;56.30
54034;DHT22;39952;40.122;18.294;2022-09-19T19:28:57;24.70;56.80
54034;DHT22;39952;40.122;18.294;2022-09-19T19:32:04;24.70;56.70
54034;DHT22;39952;40.122;18.294;2022-09-19T19:35:12;24.40;57.60
54034;DHT22;39952;40.122;18.294;2022-09-19T19:38:20;24.50;57.10
54034;DHT22;39952;40.122;18.294;2022-09-19T19:41:28;24.40;57.60
54034;DHT22;39952;40.122;18.294;2022-09-19T19:44:35;24.30;57.60
54034;DHT22;39952;40.122;18.294;2022-09-19T19:47:42;24.30;57.70
54034;DHT22;39952;40.122;18.294;2022-09-19T19:50:56;24.50;57.10
54034;DHT22;39952;40.122;18.294;2022-09-19T19:54:04;24.80;56.50
54034;DHT22;39952;40.122;18.294;2022-09-19T19:57:11;24.50;57.10
54034;DHT22;39952;40.122;18.294;2022-09-19T20:00:19;24.40;57.40
54034;DHT22;39952;40.122;18.294;2022-09-19T20:03:26;24.70;56.70
54034;DHT22;39952;40.122;18.294;2022-09-19T20:06:36;24.80;56.60
54034;DHT22;39952;40.122;18.294;2022-09-19T20:09:48;24.40;57.50
54034;DHT22;39952;40.122;18.294;2022-09-19T20:12:54;24.40;57.60